This is the latest recevied weather packets stored in our database for station/object VK6HGR-1. If no packets are shown the sender has not sent any weather packets the latest 10 day(s).
| Time | Temp. | Humidity | Pressure | Rain* | Wind** | Luminosity | Snow |
|---|---|---|---|---|---|---|---|
| 1777550412 | 17.78° C | 64% | 1015.7 hPa | - | - | - | - |
| 1777549510 | 18.33° C | 66% | 1015.6 hPa | - | - | - | - |
| 1777548611 | 17.78° C | 69% | 1015.4 hPa | - | - | - | - |
| 1777547712 | 18.33° C | 69% | 1015.3 hPa | - | - | - | - |
| 1777546812 | 18.33° C | 73% | 1015.2 hPa | - | - | - | - |
| 1777545914 | 17.78° C | 75% | 1015 hPa | - | - | - | - |
| 1777545010 | 18.33° C | 75% | 1014.9 hPa | - | - | - | - |
| 1777544110 | 18.89° C | 72% | 1014.7 hPa | - | - | - | - |
| 1777543214 | 19.44° C | 65% | 1014.1 hPa | - | - | - | - |
| 1777542312 | 20° C | 65% | 1013.9 hPa | - | - | - | - |
| 1777541412 | 20.56° C | 62% | 1013.7 hPa | - | - | - | - |
| 1777540512 | 20.56° C | 60% | 1013.6 hPa | - | - | - | - |
| 1777539615 | 21.11° C | 57% | 1013.4 hPa | - | - | - | - |
| 1777538712 | 21.11° C | 56% | 1013.3 hPa | - | - | - | - |
| 1777537810 | 21.67° C | 56% | 1013.2 hPa | - | - | - | - |
| 1777536912 | 22.22° C | 55% | 1013.1 hPa | - | - | - | - |
| 1777536010 | 22.22° C | 56% | 1013.1 hPa | - | - | - | - |
| 1777535112 | 22.22° C | 56% | 1013 hPa | - | - | - | - |
| 1777534211 | 22.22° C | 55% | 1013 hPa | - | - | - | - |
| 1777533313 | 21.67° C | 57% | 1013.1 hPa | - | - | - | - |
| 1777532411 | 21.67° C | 60% | 1013.2 hPa | - | - | - | - |
| 1777531511 | 21.11° C | 61% | 1013.3 hPa | - | - | - | - |
| 1777530614 | 21.11° C | 60% | 1013.3 hPa | - | - | - | - |
| 1777529712 | 21.11° C | 60% | 1013.2 hPa | - | - | - | - |
| 1777528810 | 21.11° C | 61% | 1013.3 hPa | - | - | - | - |
* Rain since midnight (hover to see other rain measurements)
** Current wind speed in m/s (hover to see current wind gust speed)